createdAt,value
2018-08-03T00:00:11.094Z,62.60
2018-08-03T00:02:39.405Z,62.70
2018-08-03T00:05:07.681Z,62.50
2018-08-03T00:07:36.087Z,62.00
2018-08-03T00:10:05.637Z,61.50
2018-08-03T00:12:33.893Z,61.40
2018-08-03T00:17:30.137Z,60.50
2018-08-03T00:19:58.339Z,60.00
2018-08-03T00:22:26.545Z,60.00
2018-08-03T00:24:54.802Z,60.00
2018-08-03T00:32:19.098Z,59.90
2018-08-03T00:34:47.397Z,60.00
2018-08-03T00:37:15.627Z,60.00
2018-08-03T00:39:43.930Z,60.50
2018-08-03T00:42:12.134Z,60.90
2018-08-03T00:44:40.371Z,61.20
2018-08-03T00:47:08.565Z,61.50
2018-08-03T00:49:36.859Z,61.90
2018-08-03T00:52:05.102Z,61.60
2018-08-03T00:54:33.689Z,61.30
2018-08-03T00:57:01.962Z,61.10
2018-08-03T00:59:30.422Z,60.80
2018-08-03T01:01:58.643Z,60.70
2018-08-03T01:04:26.889Z,60.70
2018-08-03T01:06:55.106Z,60.70
2018-08-03T01:09:23.317Z,60.90
2018-08-03T01:11:51.537Z,60.90
2018-08-03T01:14:19.737Z,61.70
2018-08-03T01:16:47.961Z,61.10
2018-08-03T01:19:16.158Z,61.10
2018-08-03T01:21:45.359Z,60.90
2018-08-03T01:24:13.561Z,61.00
2018-08-03T01:26:41.729Z,60.90
2018-08-03T01:29:10.041Z,60.90
2018-08-03T01:31:38.196Z,60.60
2018-08-03T01:34:06.445Z,60.90
2018-08-03T01:36:34.617Z,60.90
2018-08-03T01:39:02.883Z,61.20
2018-08-03T01:41:31.062Z,61.20
2018-08-03T01:43:59.259Z,60.90
2018-08-03T01:46:27.478Z,60.90
2018-08-03T01:48:55.650Z,61.10
2018-08-03T01:51:23.864Z,60.90
2018-08-03T01:53:52.098Z,60.70
2018-08-03T01:56:20.299Z,60.60
2018-08-03T01:58:48.501Z,60.30
2018-08-03T02:01:16.692Z,60.30
2018-08-03T02:03:44.925Z,60.30
2018-08-03T02:06:13.122Z,60.30
2018-08-03T02:08:41.349Z,60.30
2018-08-03T02:11:09.557Z,60.20
2018-08-03T02:13:37.734Z,60.20
2018-08-03T02:16:05.969Z,60.30
2018-08-03T02:21:02.125Z,60.50
2018-08-03T02:23:30.356Z,60.40
2018-08-03T02:25:59.354Z,60.40
2018-08-03T02:28:27.682Z,60.60
2018-08-03T02:30:55.974Z,60.70
2018-08-03T02:33:24.564Z,60.70
2018-08-03T02:35:52.850Z,60.80
2018-08-03T02:38:21.125Z,61.40
2018-08-03T02:40:49.348Z,61.90
2018-08-03T02:43:17.563Z,62.10
2018-08-03T02:45:45.818Z,62.00
2018-08-03T02:48:14.049Z,62.50
2018-08-03T02:50:42.254Z,63.00
2018-08-03T02:53:10.524Z,63.40
2018-08-03T02:55:38.732Z,63.60
2018-08-03T02:58:07.003Z,63.70
2018-08-03T03:00:35.258Z,63.60
2018-08-03T03:03:03.574Z,63.70
2018-08-03T03:05:31.778Z,63.70
2018-08-03T03:08:00.078Z,63.50
2018-08-03T03:10:28.286Z,64.10
2018-08-03T03:12:56.522Z,63.50
2018-08-03T03:15:24.800Z,63.80
2018-08-03T03:17:53.104Z,64.00
2018-08-03T03:20:22.251Z,63.90
2018-08-03T03:22:50.466Z,64.10
2018-08-03T03:25:18.853Z,63.90
2018-08-03T03:27:47.057Z,63.80
2018-08-03T03:30:15.302Z,63.80
2018-08-03T03:32:43.561Z,63.40
2018-08-03T03:35:11.752Z,63.60
2018-08-03T03:37:39.987Z,63.90
2018-08-03T03:40:08.208Z,63.90
2018-08-03T03:42:36.390Z,63.90
2018-08-03T03:45:05.005Z,63.90
2018-08-03T03:47:33.338Z,63.70
2018-08-03T03:50:01.827Z,63.90
2018-08-03T03:52:30.022Z,64.30
2018-08-03T03:54:58.382Z,63.90
2018-08-03T03:57:26.634Z,63.70
2018-08-03T03:59:54.878Z,64.10
2018-08-03T04:02:23.134Z,64.20
2018-08-03T04:04:51.359Z,63.90
2018-08-03T04:07:19.557Z,63.70
2018-08-03T04:09:47.793Z,63.70
2018-08-03T04:12:16.204Z,63.60
2018-08-03T04:14:44.414Z,64.00
2018-08-03T04:17:12.685Z,64.90
2018-08-03T04:19:40.950Z,65.60
2018-08-03T04:22:09.218Z,66.00
2018-08-03T04:24:37.426Z,66.20
2018-08-03T04:27:05.688Z,66.30
2018-08-03T04:29:33.918Z,66.40
2018-08-03T04:32:02.161Z,66.10
2018-08-03T04:34:30.354Z,66.10
2018-08-03T04:36:58.557Z,66.10
2018-08-03T04:39:26.878Z,66.70
2018-08-03T04:41:55.101Z,66.80
2018-08-03T04:44:23.338Z,67.10
2018-08-03T04:46:51.561Z,67.30
2018-08-03T04:49:19.859Z,68.00
2018-08-03T04:51:48.080Z,68.70
2018-08-03T04:54:16.310Z,69.10
2018-08-03T04:56:44.538Z,69.60
2018-08-03T04:59:12.765Z,69.40
2018-08-03T05:01:40.998Z,69.10
2018-08-03T05:04:09.341Z,68.80
2018-08-03T05:06:37.614Z,69.30
2018-08-03T05:09:06.454Z,68.50
2018-08-03T05:11:34.717Z,68.40
2018-08-03T05:14:02.980Z,68.30
2018-08-03T05:16:31.262Z,67.40
2018-08-03T05:18:59.665Z,66.70
2018-08-03T05:21:27.865Z,65.80
2018-08-03T05:23:56.090Z,65.40
2018-08-03T05:26:24.324Z,64.80
2018-08-03T05:28:52.611Z,64.30
2018-08-03T05:31:20.827Z,63.50
2018-08-03T05:33:49.078Z,63.50
2018-08-03T05:36:17.410Z,63.30
2018-08-03T05:38:45.908Z,63.50
2018-08-03T05:41:14.982Z,63.40
2018-08-03T05:43:43.287Z,62.70
2018-08-03T05:46:11.554Z,63.10
2018-08-03T05:48:39.782Z,62.90
2018-08-03T05:51:08.037Z,61.40
2018-08-03T05:53:36.238Z,60.30
2018-08-03T05:56:04.505Z,60.40
2018-08-03T05:58:33.854Z,59.50
2018-08-03T06:01:02.106Z,58.30
2018-08-03T06:03:30.315Z,56.90
2018-08-03T06:05:59.111Z,56.70
2018-08-03T06:08:27.706Z,56.30
2018-08-03T06:10:55.966Z,55.60
2018-08-03T06:13:24.242Z,55.00
2018-08-03T06:15:52.549Z,54.20
2018-08-03T06:18:20.840Z,53.20
2018-08-03T06:20:49.119Z,53.70
2018-08-03T06:23:17.426Z,52.80
2018-08-03T06:25:45.678Z,51.70
2018-08-03T06:28:13.867Z,50.60
2018-08-03T06:30:42.478Z,50.20
2018-08-03T06:33:10.704Z,49.60
2018-08-03T06:35:38.924Z,49.00
2018-08-03T06:38:07.215Z,48.00
2018-08-03T06:40:35.964Z,47.40
2018-08-03T06:43:04.186Z,46.90
2018-08-03T06:45:32.421Z,47.50
2018-08-03T06:48:00.631Z,47.80
2018-08-03T06:50:28.942Z,47.70
2018-08-03T06:52:57.256Z,49.40
2018-08-03T06:55:25.516Z,50.20
2018-08-03T06:57:53.767Z,50.50
2018-08-03T07:00:22.046Z,48.50
2018-08-03T07:02:50.258Z,47.30
2018-08-03T07:05:18.474Z,47.80
2018-08-03T07:07:46.750Z,47.60
2018-08-03T07:10:14.970Z,47.40
2018-08-03T07:12:43.305Z,45.90
2018-08-03T07:15:11.524Z,45.00
2018-08-03T07:17:39.801Z,44.90
2018-08-03T07:20:08.228Z,45.70
2018-08-03T07:22:36.347Z,45.40
2018-08-03T07:25:06.066Z,43.90
2018-08-03T07:27:34.293Z,43.60
2018-08-03T07:30:02.614Z,43.30
2018-08-03T07:32:30.848Z,42.70
2018-08-03T07:34:59.063Z,42.50
2018-08-03T07:37:27.263Z,41.60
2018-08-03T07:39:55.874Z,41.20
2018-08-03T07:42:24.051Z,39.70
2018-08-03T07:44:52.263Z,39.20
2018-08-03T07:47:20.533Z,39.40
2018-08-03T07:49:48.716Z,39.00
2018-08-03T07:52:16.988Z,38.20
2018-08-03T07:54:45.182Z,37.30
2018-08-03T07:57:13.477Z,37.10
2018-08-03T07:59:42.004Z,36.90
2018-08-03T08:02:10.204Z,37.70
2018-08-03T08:04:38.476Z,37.70
2018-08-03T08:07:06.741Z,36.60
2018-08-03T08:09:35.072Z,36.40
2018-08-03T08:12:03.335Z,35.60
2018-08-03T08:14:31.557Z,34.50
2018-08-03T08:16:59.862Z,34.80
2018-08-03T08:19:28.124Z,34.40
2018-08-03T08:21:56.364Z,34.10
2018-08-03T08:24:24.628Z,33.50
2018-08-03T08:26:52.864Z,33.00
2018-08-03T08:29:21.059Z,32.40
2018-08-03T08:31:49.320Z,32.00
2018-08-03T08:34:17.570Z,33.50
2018-08-03T08:36:45.781Z,33.60
2018-08-03T08:39:14.212Z,33.70
2018-08-03T08:41:43.526Z,33.50
2018-08-03T08:44:12.838Z,32.70
2018-08-03T08:46:41.475Z,32.50
2018-08-03T08:49:09.842Z,32.50
2018-08-03T08:51:38.030Z,32.40
2018-08-03T08:54:06.242Z,33.20
2018-08-03T08:56:34.674Z,33.00
2018-08-03T08:59:03.249Z,31.80
2018-08-03T09:01:31.484Z,31.50
2018-08-03T09:03:59.688Z,31.10
2018-08-03T09:06:28.312Z,30.00
2018-08-03T09:08:56.530Z,29.90
2018-08-03T09:11:24.902Z,29.80
2018-08-03T09:13:53.122Z,32.10
2018-08-03T09:16:21.380Z,31.20
2018-08-03T09:18:49.679Z,30.80
2018-08-03T09:21:19.452Z,31.80
2018-08-03T09:23:47.716Z,33.30
2018-08-03T09:26:15.922Z,33.70
2018-08-03T09:28:44.260Z,34.40
2018-08-03T09:31:12.530Z,33.40
2018-08-03T09:33:40.774Z,32.60
2018-08-03T09:36:09.164Z,32.60
2018-08-03T09:38:37.377Z,31.00
2018-08-03T09:41:05.631Z,32.50
2018-08-03T09:43:33.843Z,33.20
2018-08-03T09:46:02.199Z,31.70
2018-08-03T09:48:30.393Z,30.50
2018-08-03T09:50:58.608Z,31.00
2018-08-03T09:53:26.878Z,31.00
2018-08-03T09:55:55.107Z,30.80
2018-08-03T09:58:23.314Z,30.30
2018-08-03T10:00:56.635Z,31.60
2018-08-03T10:03:25.494Z,30.50
2018-08-03T10:05:53.710Z,30.60
2018-08-03T10:08:21.975Z,30.40
2018-08-03T10:10:50.165Z,28.80
2018-08-03T10:13:18.363Z,28.70
2018-08-03T10:15:46.611Z,28.60
2018-08-03T10:18:14.826Z,29.30
2018-08-03T10:20:43.101Z,30.60
2018-08-03T10:25:39.336Z,29.70
2018-08-03T10:28:07.558Z,29.70
2018-08-03T10:30:35.789Z,31.10
2018-08-03T10:33:04.055Z,31.60
2018-08-03T10:35:32.238Z,30.90
2018-08-03T10:38:00.458Z,30.60
2018-08-03T10:40:28.678Z,32.20
2018-08-03T10:42:56.989Z,32.60
2018-08-03T10:45:25.154Z,33.20
2018-08-03T10:47:53.430Z,32.70
2018-08-03T10:50:21.702Z,32.00
2018-08-03T10:52:49.962Z,31.00
2018-08-03T10:55:18.209Z,30.30
2018-08-03T10:57:46.385Z,29.50
2018-08-03T11:00:26.247Z,30.80
2018-08-03T11:02:55.357Z,31.90
2018-08-03T11:05:23.622Z,31.40
2018-08-03T11:07:52.897Z,31.60
2018-08-03T11:10:21.230Z,33.20
2018-08-03T11:12:50.438Z,32.00
2018-08-03T11:15:18.909Z,31.80
2018-08-03T11:17:48.515Z,31.30
2018-08-03T11:20:17.015Z,31.60
2018-08-03T11:22:45.978Z,32.20
2018-08-03T11:25:14.256Z,32.20
2018-08-03T11:27:42.493Z,32.00
2018-08-03T11:30:11.344Z,32.10
2018-08-03T11:32:39.603Z,31.50
2018-08-03T11:35:08.812Z,31.70
2018-08-03T11:37:37.067Z,31.80
2018-08-03T11:40:05.666Z,32.40
2018-08-03T11:42:33.983Z,32.70
2018-08-03T11:45:02.288Z,32.70
2018-08-03T11:47:30.485Z,33.90
2018-08-03T11:52:26.786Z,32.80
2018-08-03T11:54:55.219Z,32.90
2018-08-03T11:57:23.540Z,32.70
2018-08-03T11:59:51.736Z,31.90
2018-08-03T12:02:20.137Z,32.20
2018-08-03T12:04:48.470Z,31.90
2018-08-03T12:07:16.689Z,31.70
2018-08-03T12:09:44.949Z,31.90
2018-08-03T12:12:13.350Z,32.20
2018-08-03T12:14:41.625Z,32.40
2018-08-03T12:17:10.087Z,31.70
2018-08-03T12:19:38.271Z,31.60
2018-08-03T12:22:06.458Z,31.70
2018-08-03T12:24:34.705Z,31.80
2018-08-03T12:27:02.964Z,31.90
2018-08-03T12:29:31.168Z,31.70
2018-08-03T12:31:59.428Z,31.90
2018-08-03T12:34:27.706Z,31.40
2018-08-03T12:36:55.942Z,31.00
2018-08-03T12:39:24.154Z,31.40
2018-08-03T12:41:52.430Z,31.80
2018-08-03T12:44:20.690Z,31.10
2018-08-03T12:46:48.886Z,30.80
2018-08-03T12:49:17.139Z,30.70
2018-08-03T12:51:45.458Z,30.70
2018-08-03T12:54:13.615Z,30.50
2018-08-03T12:56:41.925Z,29.30
2018-08-03T12:59:10.056Z,29.50
2018-08-03T13:01:38.246Z,29.50
2018-08-03T13:04:06.609Z,29.80
2018-08-03T13:06:34.785Z,29.80
2018-08-03T13:09:03.387Z,28.90
2018-08-03T13:14:06.338Z,29.40
2018-08-03T13:16:34.562Z,30.00
2018-08-03T13:19:02.828Z,29.80
2018-08-03T13:21:34.486Z,30.00
2018-08-03T13:24:03.158Z,30.20
2018-08-03T13:26:31.518Z,30.00
2018-08-03T13:29:00.017Z,29.10
2018-08-03T13:31:29.296Z,29.10
2018-08-03T13:33:57.535Z,28.80
2018-08-03T13:36:27.036Z,28.60
2018-08-03T13:38:55.269Z,28.90
2018-08-03T13:41:23.482Z,28.20
2018-08-03T13:43:52.299Z,28.30
2018-08-03T13:46:20.493Z,28.90
2018-08-03T13:48:49.287Z,28.40
2018-08-03T13:51:18.452Z,28.30
2018-08-03T13:53:48.122Z,27.80
2018-08-03T13:56:17.215Z,27.80
2018-08-03T13:58:45.999Z,27.80
2018-08-03T14:01:25.959Z,27.90
2018-08-03T14:03:54.585Z,28.20
2018-08-03T14:06:22.757Z,27.80
2018-08-03T14:08:50.977Z,28.10
2018-08-03T14:11:19.624Z,27.90
2018-08-03T14:13:48.262Z,28.20
2018-08-03T14:16:16.576Z,27.90
2018-08-03T14:18:46.018Z,28.20
2018-08-03T14:21:14.415Z,28.10
2018-08-03T14:23:42.799Z,28.60
2018-08-03T14:26:11.054Z,28.50
2018-08-03T14:28:39.730Z,28.20
2018-08-03T14:31:07.924Z,27.90
2018-08-03T14:33:36.154Z,28.00
2018-08-03T14:36:04.338Z,28.30
2018-08-03T14:38:32.739Z,28.00
2018-08-03T14:41:00.973Z,27.80
2018-08-03T14:43:29.277Z,28.10
2018-08-03T14:45:57.533Z,27.60
2018-08-03T14:48:25.853Z,27.70
2018-08-03T14:50:54.129Z,27.00
2018-08-03T14:53:22.318Z,27.20
2018-08-03T14:55:50.525Z,26.90
2018-08-03T14:58:18.863Z,26.50
2018-08-03T15:00:47.090Z,26.70
2018-08-03T15:03:15.354Z,26.90
2018-08-03T15:05:43.557Z,26.40
2018-08-03T15:08:11.764Z,26.10
2018-08-03T15:10:40.097Z,25.90
2018-08-03T15:13:08.461Z,26.00
2018-08-03T15:15:36.651Z,25.60
2018-08-03T15:18:04.883Z,25.80
2018-08-03T15:20:33.129Z,26.20
2018-08-03T15:23:01.354Z,26.30
2018-08-03T15:25:29.594Z,26.30
2018-08-03T15:27:57.922Z,27.00
2018-08-03T15:30:26.356Z,27.60
2018-08-03T15:32:54.561Z,27.90
2018-08-03T15:35:22.770Z,28.60
2018-08-03T15:37:51.745Z,28.00
2018-08-03T15:40:19.952Z,28.30
2018-08-03T15:42:48.126Z,28.50
2018-08-03T15:45:16.387Z,28.60
2018-08-03T15:47:44.649Z,28.80
2018-08-03T15:50:12.979Z,28.90
2018-08-03T15:52:41.259Z,28.70
2018-08-03T15:55:09.898Z,28.50
2018-08-03T15:57:38.174Z,28.70
2018-08-03T16:00:07.794Z,28.70
2018-08-03T16:02:36.142Z,28.70
2018-08-03T16:05:04.635Z,28.60
2018-08-03T16:07:33.220Z,28.70
2018-08-03T16:10:02.550Z,28.80
2018-08-03T16:12:30.742Z,28.60
2018-08-03T16:14:59.003Z,28.60
2018-08-03T16:17:27.173Z,28.50
2018-08-03T16:22:23.426Z,27.60
2018-08-03T16:24:51.653Z,27.90
2018-08-03T16:27:20.027Z,27.70
2018-08-03T16:29:48.447Z,27.90
2018-08-03T16:32:16.747Z,27.70
2018-08-03T16:34:45.087Z,27.70
2018-08-03T16:37:13.322Z,27.60
2018-08-03T16:39:41.907Z,27.00
2018-08-03T16:42:10.121Z,27.00
2018-08-03T16:44:38.527Z,26.90
2018-08-03T16:47:06.910Z,26.50
2018-08-03T16:49:35.475Z,26.80
2018-08-03T16:52:03.745Z,26.70
2018-08-03T16:54:32.845Z,26.90
2018-08-03T16:57:01.222Z,26.80
2018-08-03T16:59:29.913Z,26.80
2018-08-03T17:01:58.488Z,26.90
2018-08-03T17:04:33.828Z,26.90
2018-08-03T17:07:02.123Z,27.10
2018-08-03T17:09:30.406Z,27.20
2018-08-03T17:11:59.194Z,27.20
2018-08-03T17:14:27.446Z,27.20
2018-08-03T17:16:55.713Z,27.00
2018-08-03T17:19:24.206Z,27.00
2018-08-03T17:21:52.586Z,26.90
2018-08-03T17:24:20.849Z,26.90
2018-08-03T17:26:49.098Z,27.00
2018-08-03T17:29:17.310Z,27.00
2018-08-03T17:31:45.585Z,27.10
2018-08-03T17:34:13.914Z,27.60
2018-08-03T17:36:42.155Z,28.20
2018-08-03T17:39:11.342Z,28.50
2018-08-03T17:41:40.006Z,28.60
2018-08-03T17:44:08.284Z,28.80
2018-08-03T17:46:36.570Z,29.10
2018-08-03T17:49:04.854Z,29.20
2018-08-03T17:51:33.134Z,29.30
2018-08-03T17:54:01.397Z,29.30
2018-08-03T17:56:29.658Z,29.20
2018-08-03T17:58:58.042Z,29.10
2018-08-03T18:01:26.325Z,29.20
2018-08-03T18:03:54.517Z,29.10
2018-08-03T18:06:22.874Z,29.20
2018-08-03T18:08:51.145Z,29.30
2018-08-03T18:11:19.425Z,29.00
2018-08-03T18:13:47.681Z,29.20
2018-08-03T18:16:15.901Z,29.40
2018-08-03T18:18:44.074Z,29.60
2018-08-03T18:21:12.270Z,29.60
2018-08-03T18:23:40.493Z,29.80
2018-08-03T18:26:08.734Z,29.90
2018-08-03T18:28:36.987Z,30.00
2018-08-03T18:31:05.330Z,30.00
2018-08-03T18:33:33.831Z,30.10
2018-08-03T18:36:02.387Z,30.30
2018-08-03T18:38:31.557Z,30.90
2018-08-03T18:40:59.809Z,30.20
2018-08-03T18:43:28.106Z,30.20
2018-08-03T18:45:56.548Z,30.30
2018-08-03T18:48:24.838Z,30.40
2018-08-03T18:50:53.154Z,30.50
2018-08-03T18:53:21.357Z,30.90
2018-08-03T18:55:49.618Z,31.30
2018-08-03T18:58:17.824Z,31.70
2018-08-03T19:00:46.131Z,32.40
2018-08-03T19:03:14.365Z,32.90
2018-08-03T19:05:42.566Z,33.10
2018-08-03T19:08:10.809Z,33.60
2018-08-03T19:10:39.117Z,34.00
2018-08-03T19:13:07.413Z,35.00
2018-08-03T19:15:35.734Z,34.60
2018-08-03T19:18:04.089Z,34.60
2018-08-03T19:20:32.386Z,34.80
2018-08-03T19:23:00.662Z,34.90
2018-08-03T19:25:28.895Z,35.00
2018-08-03T19:27:57.139Z,35.30
2018-08-03T19:30:25.425Z,35.30
2018-08-03T19:32:53.697Z,35.60
2018-08-03T19:35:21.975Z,36.20
2018-08-03T19:37:51.103Z,35.60
2018-08-03T19:40:19.404Z,35.70
2018-08-03T19:42:47.623Z,35.70
2018-08-03T19:45:16.210Z,35.80
2018-08-03T19:47:44.454Z,35.80
2018-08-03T19:50:12.718Z,35.80
2018-08-03T19:52:41.001Z,35.80
2018-08-03T19:55:09.166Z,36.00
2018-08-03T20:00:07.526Z,36.00
2018-08-03T20:02:35.806Z,36.20
2018-08-03T20:05:04.197Z,36.30
2018-08-03T20:07:32.384Z,36.50
2018-08-03T20:10:00.589Z,36.40
2018-08-03T20:12:28.935Z,36.20
2018-08-03T20:14:57.159Z,36.10
2018-08-03T20:17:25.434Z,36.40
2018-08-03T20:19:53.636Z,36.20
2018-08-03T20:22:21.931Z,36.40
2018-08-03T20:24:50.464Z,36.70
2018-08-03T20:27:18.663Z,36.60
2018-08-03T20:29:46.916Z,36.70
2018-08-03T20:32:15.218Z,36.70
2018-08-03T20:34:43.525Z,36.70
2018-08-03T20:37:11.798Z,37.00
2018-08-03T20:39:40.046Z,36.90
2018-08-03T20:42:08.295Z,36.90
2018-08-03T20:44:36.552Z,36.80
2018-08-03T20:47:04.800Z,36.80
2018-08-03T20:49:32.990Z,37.30
2018-08-03T20:52:01.368Z,37.10
2018-08-03T20:54:29.577Z,37.10
2018-08-03T20:56:57.805Z,37.20
2018-08-03T20:59:26.051Z,37.40
2018-08-03T21:01:54.603Z,37.50
2018-08-03T21:04:22.834Z,37.70
2018-08-03T21:06:51.021Z,38.10
2018-08-03T21:09:19.288Z,38.10
2018-08-03T21:11:47.566Z,38.40
2018-08-03T21:14:15.880Z,38.50
2018-08-03T21:16:44.113Z,38.40
2018-08-03T21:19:12.399Z,38.90
2018-08-03T21:21:40.851Z,38.90
2018-08-03T21:24:09.320Z,39.60
2018-08-03T21:26:37.756Z,39.90
2018-08-03T21:29:06.108Z,40.00
2018-08-03T21:31:34.323Z,40.00
2018-08-03T21:34:02.695Z,40.40
2018-08-03T21:36:30.889Z,40.80
2018-08-03T21:38:59.680Z,41.50
2018-08-03T21:41:27.936Z,41.30
2018-08-03T21:43:56.215Z,41.70
2018-08-03T21:46:24.486Z,41.80
2018-08-03T21:48:52.971Z,42.10
2018-08-03T21:51:21.614Z,42.10
2018-08-03T21:53:49.902Z,42.30
2018-08-03T21:56:18.229Z,42.50
2018-08-03T21:58:46.585Z,42.50
2018-08-03T22:01:14.796Z,42.60
2018-08-03T22:03:43.221Z,42.80
2018-08-03T22:06:11.437Z,43.00
2018-08-03T22:08:39.969Z,43.30
2018-08-03T22:11:08.229Z,43.70
2018-08-03T22:13:36.422Z,44.20
2018-08-03T22:16:04.938Z,44.40
2018-08-03T22:18:33.215Z,44.80
2018-08-03T22:21:01.580Z,45.20
2018-08-03T22:23:29.824Z,45.80
2018-08-03T22:25:58.239Z,46.00
2018-08-03T22:28:26.481Z,47.20
2018-08-03T22:30:54.794Z,47.10
2018-08-03T22:33:23.063Z,47.20
2018-08-03T22:35:51.414Z,47.60
2018-08-03T22:38:19.727Z,47.90
2018-08-03T22:40:48.001Z,48.20
2018-08-03T22:43:16.255Z,48.20
2018-08-03T22:45:44.558Z,48.70
2018-08-03T22:48:12.818Z,48.90
2018-08-03T22:50:41.047Z,49.30
2018-08-03T22:53:09.374Z,48.50
2018-08-03T22:55:37.746Z,48.80
2018-08-03T22:58:06.097Z,48.50
2018-08-03T23:00:34.769Z,48.50
2018-08-03T23:03:03.106Z,48.50
2018-08-03T23:05:31.362Z,48.30
2018-08-03T23:08:00.271Z,48.10
2018-08-03T23:10:28.606Z,47.90
2018-08-03T23:12:56.873Z,48.10
2018-08-03T23:15:25.181Z,48.70
2018-08-03T23:17:53.466Z,48.80
2018-08-03T23:20:21.716Z,48.80
2018-08-03T23:22:49.917Z,49.30
2018-08-03T23:25:18.295Z,49.30
2018-08-03T23:27:46.522Z,49.60
2018-08-03T23:30:14.839Z,49.90
2018-08-03T23:32:43.118Z,50.10
2018-08-03T23:35:11.389Z,50.50
2018-08-03T23:37:39.715Z,50.60
2018-08-03T23:40:07.954Z,50.50
2018-08-03T23:45:05.262Z,50.40
2018-08-03T23:47:33.560Z,50.20
2018-08-03T23:50:01.775Z,50.30
2018-08-03T23:52:30.058Z,50.20
2018-08-03T23:54:58.346Z,50.50
2018-08-03T23:57:29.559Z,50.90
2018-08-03T23:59:57.834Z,50.80
